createdAt,value
2022-08-18T00:01:15.914Z,17.98
2022-08-18T00:03:56.989Z,20.30
2022-08-18T00:06:31.754Z,18.33
2022-08-18T00:09:02.262Z,19.10
2022-08-18T00:11:40.911Z,18.47
2022-08-18T00:14:22.272Z,19.33
2022-08-18T00:16:52.870Z,18.00
2022-08-18T00:19:46.691Z,20.00
2022-08-18T00:22:14.619Z,18.45
2022-08-18T00:24:47.615Z,16.52
2022-08-18T00:27:29.065Z,15.80
2022-08-18T00:32:33.512Z,15.57
2022-08-18T00:35:06.181Z,18.45
2022-08-18T00:37:36.583Z,16.52
2022-08-18T00:40:07.635Z,18.83
2022-08-18T00:42:44.130Z,15.85
2022-08-18T00:45:17.652Z,16.92
2022-08-18T00:47:45.788Z,16.50
2022-08-18T00:50:22.680Z,18.15
2022-08-18T00:53:01.175Z,20.45
2022-08-18T00:55:31.860Z,14.77
2022-08-18T00:58:06.977Z,20.30
2022-08-18T01:00:37.257Z,15.02
2022-08-18T01:03:12.300Z,16.48
2022-08-18T01:06:03.620Z,15.20
2022-08-18T01:08:32.768Z,12.98
2022-08-18T01:11:02.908Z,15.35
2022-08-18T01:13:33.105Z,18.00
2022-08-18T01:16:22.200Z,17.33
2022-08-18T01:19:09.947Z,18.80
2022-08-18T01:21:51.038Z,15.80
2022-08-18T01:24:53.389Z,18.30
2022-08-18T01:27:21.609Z,17.45
2022-08-18T01:29:50.810Z,16.33
2022-08-18T01:32:22.217Z,16.67
2022-08-18T01:34:51.980Z,19.05
2022-08-18T01:37:23.347Z,15.00
2022-08-18T01:41:21.106Z,15.43
2022-08-18T01:42:45.063Z,20.63
2022-08-18T01:45:16.510Z,18.08
2022-08-18T01:50:18.081Z,14.65
2022-08-18T01:52:45.993Z,14.05
2022-08-18T01:55:14.604Z,15.73
2022-08-18T01:57:45.189Z,16.80
2022-08-18T02:00:16.285Z,21.47
2022-08-18T02:02:44.719Z,15.35
2022-08-18T02:05:16.971Z,14.48
2022-08-18T02:07:45.104Z,18.40
2022-08-18T02:10:16.454Z,14.00
2022-08-18T02:12:44.531Z,15.13
2022-08-18T02:15:13.218Z,15.25
2022-08-18T02:17:46.090Z,14.63
2022-08-18T02:20:17.310Z,16.05
2022-08-18T02:22:47.362Z,11.70
2022-08-18T02:25:17.731Z,16.23
2022-08-18T02:27:46.651Z,15.65
2022-08-18T02:30:18.569Z,16.42
2022-08-18T02:32:47.185Z,16.75
2022-08-18T02:35:15.857Z,15.70
2022-08-18T02:37:48.085Z,16.60
2022-08-18T02:40:18.010Z,18.80
2022-08-18T02:42:47.109Z,15.60
2022-08-18T02:45:15.534Z,15.45
2022-08-18T02:47:45.063Z,15.00
2022-08-18T02:50:14.755Z,16.33
2022-08-18T02:52:42.999Z,16.25
2022-08-18T02:55:11.817Z,15.15
2022-08-18T02:57:45.940Z,17.05
2022-08-18T03:00:18.834Z,16.00
2022-08-18T03:02:52.218Z,18.70
2022-08-18T03:05:20.689Z,15.20
2022-08-18T03:07:50.554Z,19.25
2022-08-18T03:10:32.403Z,16.90
2022-08-18T03:13:02.456Z,16.02
2022-08-18T03:15:30.388Z,18.73
2022-08-18T03:17:58.377Z,14.45
2022-08-18T03:20:30.395Z,16.77
2022-08-18T03:23:05.493Z,16.38
2022-08-18T03:25:34.672Z,15.40
2022-08-18T03:28:07.038Z,16.42
2022-08-18T03:30:35.144Z,17.60
2022-08-18T03:33:03.325Z,16.65
2022-08-18T03:35:31.169Z,18.80
2022-08-18T03:38:00.108Z,16.88
2022-08-18T03:40:28.402Z,15.90
2022-08-18T03:42:58.813Z,16.00
2022-08-18T03:45:32.010Z,18.35
2022-08-18T03:48:01.401Z,17.20
2022-08-18T03:50:29.974Z,16.23
2022-08-18T03:52:59.721Z,18.23
2022-08-18T03:55:29.469Z,18.20
2022-08-18T03:58:22.261Z,22.63
2022-08-18T04:00:51.659Z,17.98
2022-08-18T04:03:19.870Z,16.92
2022-08-18T04:05:50.596Z,17.70
2022-08-18T04:08:18.643Z,16.52
2022-08-18T04:10:46.844Z,16.67
2022-08-18T04:13:15.135Z,17.75
2022-08-18T04:15:45.434Z,18.70
2022-08-18T04:18:13.234Z,18.13
2022-08-18T04:20:59.024Z,15.82
2022-08-18T04:23:31.783Z,15.52
2022-08-18T04:26:17.168Z,20.52
2022-08-18T04:28:47.458Z,19.23
2022-08-18T04:31:16.252Z,20.25
2022-08-18T04:33:46.762Z,17.20
2022-08-18T04:36:18.835Z,22.00
2022-08-18T04:38:49.973Z,15.38
2022-08-18T04:41:20.004Z,20.80
2022-08-18T04:43:49.809Z,18.02
2022-08-18T04:46:18.438Z,17.88
2022-08-18T04:48:58.879Z,17.20
2022-08-18T04:52:26.585Z,19.75
2022-08-18T04:54:17.472Z,18.20
2022-08-18T04:56:45.231Z,23.63
2022-08-18T04:59:14.770Z,23.65
2022-08-18T05:01:45.921Z,25.25
2022-08-18T05:04:17.741Z,22.73
2022-08-18T05:06:46.573Z,22.95
2022-08-18T05:09:16.745Z,22.13
2022-08-18T05:11:51.163Z,31.20
2022-08-18T05:14:20.342Z,21.10
2022-08-18T05:16:49.656Z,24.85
2022-08-18T05:19:23.206Z,21.98
2022-08-18T05:21:52.329Z,20.92
2022-08-18T05:24:21.609Z,23.27
2022-08-18T05:26:49.753Z,24.88
2022-08-18T05:29:19.793Z,21.58
2022-08-18T05:31:50.065Z,26.27
2022-08-18T05:34:21.191Z,25.33
2022-08-18T05:36:49.145Z,27.50
2022-08-18T05:39:25.361Z,24.17
2022-08-18T05:42:06.021Z,24.95
2022-08-18T05:44:37.339Z,26.13
2022-08-18T05:47:22.637Z,25.73
2022-08-18T05:49:51.219Z,27.58
2022-08-18T05:52:38.970Z,23.35
2022-08-18T05:55:31.968Z,22.23
2022-08-18T05:58:21.097Z,22.40
2022-08-18T06:01:00.181Z,27.17
2022-08-18T06:03:46.320Z,28.48
2022-08-18T06:06:21.490Z,27.40
2022-08-18T06:09:33.014Z,25.88
2022-08-18T06:12:13.522Z,25.75
2022-08-18T06:14:42.693Z,22.70
2022-08-18T06:17:17.596Z,24.75
2022-08-18T06:20:14.421Z,22.05
2022-08-18T06:22:52.615Z,22.83
2022-08-18T06:25:26.250Z,24.55
2022-08-18T06:28:09.827Z,25.10
2022-08-18T06:30:47.456Z,24.17
2022-08-18T06:33:29.854Z,23.42
2022-08-18T06:36:37.416Z,24.38
2022-08-18T06:39:32.146Z,21.17
2022-08-18T06:42:00.841Z,22.75
2022-08-18T06:47:21.002Z,25.98
2022-08-18T06:50:18.419Z,21.52
2022-08-18T06:52:55.913Z,24.85
2022-08-18T06:55:36.524Z,23.40
2022-08-18T06:58:21.497Z,23.20
2022-08-18T07:00:55.115Z,24.10
2022-08-18T07:03:43.670Z,23.00
2022-08-18T07:06:23.637Z,22.77
2022-08-18T07:08:53.806Z,25.98
2022-08-18T07:11:33.939Z,19.63
2022-08-18T07:14:23.094Z,20.45
2022-08-18T07:16:59.872Z,22.88
2022-08-18T07:19:30.389Z,21.73
2022-08-18T07:22:12.789Z,19.73
2022-08-18T07:24:46.871Z,17.90
2022-08-18T07:27:17.782Z,21.20
2022-08-18T07:30:09.705Z,19.90
2022-08-18T07:32:52.091Z,19.73
2022-08-18T07:35:25.875Z,24.67
2022-08-18T07:38:18.709Z,20.20
2022-08-18T07:41:00.384Z,23.52
2022-08-18T07:43:46.403Z,22.23
2022-08-18T07:46:28.790Z,22.42
2022-08-18T07:48:58.866Z,20.42
2022-08-18T07:54:50.821Z,19.33
2022-08-18T07:57:46.750Z,20.23
2022-08-18T08:00:55.353Z,20.05
2022-08-18T08:03:23.446Z,19.20
2022-08-18T08:06:10.388Z,21.45
2022-08-18T08:08:51.107Z,19.70
2022-08-18T08:11:49.310Z,18.00
2022-08-18T08:14:28.950Z,17.77
2022-08-18T08:17:13.018Z,16.77
2022-08-18T08:20:10.148Z,16.25
2022-08-18T08:22:43.947Z,20.27
2022-08-18T08:25:47.575Z,19.42
2022-08-18T08:28:33.840Z,18.98
2022-08-18T08:31:33.080Z,15.30
2022-08-18T08:34:06.115Z,17.95
2022-08-18T08:36:39.617Z,20.48
2022-08-18T08:39:28.929Z,19.92
2022-08-18T08:42:30.717Z,16.38
2022-08-18T08:45:00.996Z,16.58
2022-08-18T08:47:59.629Z,16.02
2022-08-18T08:51:00.547Z,15.85
2022-08-18T08:53:38.647Z,15.35
2022-08-18T08:56:10.182Z,15.80
2022-08-18T08:59:03.742Z,15.32
2022-08-18T09:01:43.901Z,13.77
2022-08-18T09:04:36.165Z,12.93
2022-08-18T09:07:23.217Z,14.02
2022-08-18T09:10:13.449Z,14.63
2022-08-18T09:13:03.026Z,15.57
2022-08-18T09:15:37.602Z,13.70
2022-08-18T09:18:12.992Z,15.32
2022-08-18T09:20:58.298Z,14.43
2022-08-18T09:23:39.288Z,18.77
2022-08-18T09:26:42.160Z,16.98
2022-08-18T09:29:27.311Z,14.02
2022-08-18T09:32:22.880Z,16.67
2022-08-18T09:35:01.103Z,20.98
2022-08-18T09:37:43.266Z,23.75
2022-08-18T09:43:39.269Z,22.70
2022-08-18T09:46:08.765Z,25.27
2022-08-18T09:48:43.183Z,23.77
2022-08-18T09:54:13.699Z,27.15
2022-08-18T09:56:54.019Z,29.67
2022-08-18T09:59:32.729Z,30.20
2022-08-18T10:02:17.317Z,31.10
2022-08-18T10:04:51.904Z,31.05
2022-08-18T10:07:43.655Z,30.85
2022-08-18T10:11:00.447Z,29.38
2022-08-18T10:13:43.868Z,29.50
2022-08-18T10:16:51.231Z,31.33
2022-08-18T10:19:41.753Z,29.80
2022-08-18T10:22:11.183Z,32.78
2022-08-18T10:24:44.076Z,30.40
2022-08-18T10:27:35.126Z,34.72
2022-08-18T10:30:05.613Z,30.45
2022-08-18T10:32:40.685Z,29.80
2022-08-18T10:35:34.361Z,31.70
2022-08-18T10:38:21.695Z,27.48
2022-08-18T10:43:57.734Z,29.77
2022-08-18T10:49:25.975Z,30.83
2022-08-18T10:52:03.901Z,25.30
2022-08-18T10:54:51.640Z,27.13
2022-08-18T10:57:35.805Z,27.05
2022-08-18T11:00:15.506Z,25.70
2022-08-18T11:06:21.150Z,31.23
2022-08-18T11:08:55.125Z,28.48
2022-08-18T11:11:39.068Z,30.00
2022-08-18T11:14:43.920Z,30.20
2022-08-18T11:17:17.783Z,37.63
2022-08-18T11:19:46.946Z,34.13
2022-08-18T11:25:31.140Z,35.80
2022-08-18T11:28:00.922Z,35.17
2022-08-18T11:30:37.553Z,36.30
2022-08-18T11:33:08.291Z,34.60
2022-08-18T11:35:50.951Z,31.98
2022-08-18T11:38:20.657Z,31.98
2022-08-18T11:41:33.894Z,32.65
2022-08-18T11:44:25.094Z,31.08
2022-08-18T11:47:07.908Z,37.40
2022-08-18T11:49:37.681Z,33.13
2022-08-18T11:52:29.670Z,31.58
2022-08-18T12:03:20.542Z,44.03
2022-08-18T12:05:56.814Z,46.00
2022-08-18T12:11:34.402Z,34.30
2022-08-18T12:14:30.546Z,30.63
2022-08-18T12:16:57.933Z,36.35
2022-08-18T12:19:29.161Z,39.20
2022-08-18T12:22:00.315Z,39.15
2022-08-18T12:24:36.677Z,33.30
2022-08-18T12:27:20.429Z,37.22
2022-08-18T12:29:52.939Z,35.58
2022-08-18T12:32:50.137Z,34.22
2022-08-18T12:35:13.234Z,33.30
2022-08-18T12:38:05.141Z,36.47
2022-08-18T12:40:33.775Z,35.63
2022-08-18T12:43:02.728Z,38.70
2022-08-18T12:45:31.358Z,37.33
2022-08-18T12:48:04.162Z,33.85
2022-08-18T12:50:37.819Z,36.75
2022-08-18T12:53:12.831Z,31.92
2022-08-18T12:55:45.464Z,33.63
2022-08-18T12:58:16.694Z,35.22
2022-08-18T13:00:45.581Z,39.90
2022-08-18T13:03:15.240Z,42.25
2022-08-18T13:05:44.307Z,38.33
2022-08-18T13:08:30.018Z,38.63
2022-08-18T13:11:20.861Z,34.55
2022-08-18T13:13:56.365Z,34.22
2022-08-18T13:16:30.485Z,29.30
2022-08-18T13:19:10.888Z,31.83
2022-08-18T13:21:42.908Z,30.77
2022-08-18T13:24:12.524Z,30.30
2022-08-18T13:26:46.887Z,34.60
2022-08-18T13:29:18.952Z,28.35
2022-08-18T13:31:55.707Z,29.30
2022-08-18T13:34:27.635Z,32.45
2022-08-18T13:36:58.283Z,31.35
2022-08-18T13:39:33.639Z,25.58
2022-08-18T13:42:21.495Z,26.90
2022-08-18T13:44:55.049Z,28.33
2022-08-18T13:47:27.598Z,25.50
2022-08-18T13:49:58.729Z,23.65
2022-08-18T13:52:34.354Z,31.00
2022-08-18T13:55:08.351Z,25.25
2022-08-18T13:57:41.885Z,28.27
2022-08-18T14:02:51.152Z,24.30
2022-08-18T14:05:22.326Z,27.95
2022-08-18T14:08:19.262Z,25.50
2022-08-18T14:10:53.333Z,28.50
2022-08-18T14:13:24.696Z,25.85
2022-08-18T14:15:55.876Z,27.85
2022-08-18T14:18:29.181Z,26.05
2022-08-18T14:21:21.775Z,26.33
2022-08-18T14:24:14.089Z,28.52
2022-08-18T14:26:50.020Z,27.88
2022-08-18T14:29:46.140Z,26.15
2022-08-18T14:32:08.049Z,30.77
2022-08-18T14:34:36.933Z,25.17
2022-08-18T14:37:04.804Z,26.35
2022-08-18T14:39:37.920Z,27.05
2022-08-18T14:42:06.242Z,24.00
2022-08-18T14:44:36.515Z,27.88
2022-08-18T14:47:06.241Z,25.73
2022-08-18T14:49:36.200Z,26.77
2022-08-18T14:52:13.961Z,27.40
2022-08-18T14:54:46.239Z,25.52
2022-08-18T14:59:54.611Z,26.92
2022-08-18T15:02:26.551Z,26.25
2022-08-18T15:04:56.286Z,29.60
2022-08-18T15:07:27.178Z,25.35
2022-08-18T15:10:15.172Z,24.60
2022-08-18T15:12:44.566Z,21.27
2022-08-18T15:15:17.655Z,24.83
2022-08-18T15:17:50.345Z,22.98
2022-08-18T15:20:29.450Z,26.05
2022-08-18T15:23:22.756Z,26.45
2022-08-18T15:25:59.026Z,25.17
2022-08-18T15:28:28.029Z,24.90
2022-08-18T15:33:50.153Z,26.80
2022-08-18T15:36:24.079Z,24.27
2022-08-18T15:39:04.806Z,24.63
2022-08-18T15:41:44.476Z,30.77
2022-08-18T15:44:15.369Z,25.42
2022-08-18T15:46:51.302Z,28.92
2022-08-18T15:49:23.096Z,29.30
2022-08-18T15:51:52.510Z,28.98
2022-08-18T15:54:21.168Z,34.28
2022-08-18T15:56:58.194Z,27.63
2022-08-18T15:59:38.950Z,34.95
2022-08-18T16:02:11.916Z,27.20
2022-08-18T16:04:47.230Z,28.67
2022-08-18T16:07:17.929Z,35.97
2022-08-18T16:09:53.155Z,30.13
2022-08-18T16:12:21.791Z,29.77
2022-08-18T16:14:52.597Z,32.70
2022-08-18T16:17:29.850Z,31.58
2022-08-18T16:20:01.538Z,31.40
2022-08-18T16:22:29.402Z,27.23
2022-08-18T16:24:57.147Z,26.38
2022-08-18T16:27:27.765Z,31.83
2022-08-18T16:29:56.948Z,30.48
2022-08-18T16:32:25.187Z,28.90
2022-08-18T16:34:53.319Z,30.02
2022-08-18T16:37:21.238Z,29.30
2022-08-18T16:39:49.040Z,30.95
2022-08-18T16:42:19.210Z,28.38
2022-08-18T16:44:47.607Z,27.55
2022-08-18T16:47:18.336Z,26.90
2022-08-18T16:49:48.784Z,27.38
2022-08-18T16:52:17.972Z,26.03
2022-08-18T16:54:49.129Z,28.33
2022-08-18T16:57:55.038Z,26.15
2022-08-18T17:00:44.300Z,24.13
2022-08-18T17:03:31.043Z,20.77
2022-08-18T17:06:15.593Z,19.88
2022-08-18T17:08:47.364Z,23.13
2022-08-18T17:11:19.156Z,20.02
2022-08-18T17:13:51.537Z,22.90
2022-08-18T17:16:21.437Z,21.23
2022-08-18T17:18:49.359Z,20.23
2022-08-18T17:21:20.540Z,21.95
2022-08-18T17:26:42.675Z,21.42
2022-08-18T17:29:19.826Z,17.63
2022-08-18T17:31:56.364Z,20.58
2022-08-18T17:34:35.044Z,22.48
2022-08-18T17:37:08.177Z,21.30
2022-08-18T17:39:43.244Z,21.13
2022-08-18T17:42:26.545Z,18.38
2022-08-18T17:45:10.710Z,19.92
2022-08-18T17:48:05.509Z,23.98
2022-08-18T17:51:02.202Z,19.42
2022-08-18T17:53:32.479Z,20.88
2022-08-18T17:56:16.322Z,19.05
2022-08-18T17:58:48.298Z,21.25
2022-08-18T18:01:16.434Z,23.63
2022-08-18T18:03:46.361Z,19.92
2022-08-18T18:06:30.510Z,20.15
2022-08-18T18:09:00.309Z,22.55
2022-08-18T18:11:36.206Z,24.85
2022-08-18T18:14:28.401Z,20.77
2022-08-18T18:17:25.391Z,25.73
2022-08-18T18:20:16.108Z,20.30
2022-08-18T18:22:46.647Z,20.15
2022-08-18T18:25:34.729Z,21.35
2022-08-18T18:28:05.247Z,19.70
2022-08-18T18:30:33.512Z,21.90
2022-08-18T18:33:15.740Z,23.58
2022-08-18T18:35:53.296Z,21.63
2022-08-18T18:38:25.880Z,24.35
2022-08-18T18:41:20.742Z,21.17
2022-08-18T18:43:50.202Z,18.45
2022-08-18T18:46:23.350Z,21.63
2022-08-18T18:49:09.342Z,20.67
2022-08-18T18:52:02.894Z,21.23
2022-08-18T18:54:49.946Z,17.88
2022-08-18T18:57:54.165Z,19.08
2022-08-18T19:00:53.599Z,23.10
2022-08-18T19:03:24.985Z,20.40
2022-08-18T19:06:08.162Z,15.25
2022-08-18T19:09:04.526Z,17.55
2022-08-18T19:11:39.048Z,20.00
2022-08-18T19:14:17.691Z,20.50
2022-08-18T19:17:14.483Z,16.52
2022-08-18T19:20:00.760Z,16.42
2022-08-18T19:22:44.809Z,18.30
2022-08-18T19:25:25.443Z,16.05
2022-08-18T19:28:13.245Z,18.30
2022-08-18T19:30:46.413Z,19.13
2022-08-18T19:33:25.997Z,18.08
2022-08-18T19:36:26.605Z,16.13
2022-08-18T19:39:12.226Z,16.15
2022-08-18T19:41:45.769Z,16.83
2022-08-18T19:44:47.342Z,15.70
2022-08-18T19:47:49.783Z,17.08
2022-08-18T19:50:29.998Z,11.43
2022-08-18T19:53:44.297Z,14.68
2022-08-18T19:56:32.810Z,17.15
2022-08-18T19:59:24.012Z,16.15
2022-08-18T20:02:10.426Z,13.05
2022-08-18T20:05:09.003Z,11.40
2022-08-18T20:07:55.673Z,13.23
2022-08-18T20:10:50.106Z,13.95
2022-08-18T20:13:36.697Z,12.10
2022-08-18T20:16:11.357Z,11.70
2022-08-18T20:18:49.105Z,11.20
2022-08-18T20:21:17.302Z,11.50
2022-08-18T20:24:00.426Z,14.95
2022-08-18T20:26:40.324Z,13.40
2022-08-18T20:29:37.671Z,12.15
2022-08-18T20:32:18.674Z,10.20
2022-08-18T20:34:50.950Z,12.55
2022-08-18T20:37:25.618Z,11.60
2022-08-18T20:39:55.983Z,13.38
2022-08-18T20:42:24.610Z,12.45
2022-08-18T20:44:58.559Z,15.02
2022-08-18T20:47:38.668Z,12.70
2022-08-18T20:50:33.612Z,12.10
2022-08-18T20:53:25.535Z,17.27
2022-08-18T20:56:31.954Z,14.00
2022-08-18T20:59:08.807Z,13.10
2022-08-18T21:01:39.047Z,12.50
2022-08-18T21:04:07.286Z,13.10
2022-08-18T21:06:44.506Z,13.82
2022-08-18T21:09:18.548Z,12.65
2022-08-18T21:11:47.984Z,17.83
2022-08-18T21:14:29.771Z,13.57
2022-08-18T21:16:59.071Z,15.98
2022-08-18T21:19:29.031Z,19.42
2022-08-18T21:22:01.188Z,15.02
2022-08-18T21:24:36.827Z,14.65
2022-08-18T21:27:26.510Z,13.80
2022-08-18T21:30:01.388Z,14.85
2022-08-18T21:32:31.957Z,14.50
2022-08-18T21:35:05.976Z,16.05
2022-08-18T21:37:41.545Z,15.93
2022-08-18T21:40:10.475Z,11.93
2022-08-18T21:42:39.276Z,11.38
2022-08-18T21:45:18.362Z,13.98
2022-08-18T21:50:17.158Z,17.65
2022-08-18T21:52:53.120Z,12.77
2022-08-18T21:55:51.660Z,12.57
2022-08-18T21:58:34.536Z,15.70
2022-08-18T22:01:11.724Z,17.58
2022-08-18T22:04:00.924Z,15.15
2022-08-18T22:06:35.585Z,13.88
2022-08-18T22:09:28.077Z,18.60
2022-08-18T22:12:43.397Z,13.40
2022-08-18T22:15:14.758Z,14.55
2022-08-18T22:18:03.133Z,18.60
2022-08-18T22:20:36.708Z,17.27
2022-08-18T22:23:32.269Z,16.85
2022-08-18T22:26:09.043Z,14.45
2022-08-18T22:29:02.206Z,15.27
2022-08-18T22:31:39.489Z,17.55
2022-08-18T22:34:11.916Z,15.95
2022-08-18T22:36:43.400Z,13.27
2022-08-18T22:39:20.993Z,13.77
2022-08-18T22:41:49.068Z,14.50
2022-08-18T22:44:17.074Z,13.65
2022-08-18T22:46:45.395Z,13.07
2022-08-18T22:49:13.403Z,13.68
2022-08-18T22:51:42.196Z,13.32
2022-08-18T22:54:14.639Z,14.23
2022-08-18T22:56:56.613Z,13.15
2022-08-18T22:59:26.912Z,13.15
2022-08-18T23:01:55.564Z,14.52
2022-08-18T23:04:25.556Z,14.57
2022-08-18T23:06:55.530Z,11.60
2022-08-18T23:09:29.959Z,12.65
2022-08-18T23:12:00.664Z,12.95
2022-08-18T23:14:32.969Z,13.63
2022-08-18T23:17:03.025Z,15.13
2022-08-18T23:19:32.095Z,10.73
2022-08-18T23:22:01.539Z,9.25
2022-08-18T23:24:31.090Z,10.07
2022-08-18T23:26:59.919Z,11.32
2022-08-18T23:29:28.247Z,12.38
2022-08-18T23:31:56.061Z,14.60
2022-08-18T23:34:27.272Z,18.00
2022-08-18T23:37:02.394Z,16.00
2022-08-18T23:39:32.518Z,8.68
2022-08-18T23:42:01.635Z,9.23
2022-08-18T23:44:30.056Z,10.52
2022-08-18T23:46:59.104Z,12.50
2022-08-18T23:49:29.154Z,11.88
2022-08-18T23:54:08.979Z,12.85
2022-08-18T23:56:37.877Z,12.27
